Time;durP1;ratioP1;P1;durP2;ratioP2;P2;SDS_P1;SDS_P2;PMS_P1;PMS_P2;Temp;Humidity;BMP_temperature;BMP_pressure;BME280_temperature;BME280_humidity;BME280_pressure;Samples;Min_cycle;Max_cycle;Signal;HPM_P1;HPM_P2
2024/01/19 00:03:45;;;;;;;28.85;23.38;;;;;;;1.62;74.75;99825.44;10403340;28;20063;-61
2024/01/19 00:08:47;;;;;;;30.10;22.48;;;;;;;1.33;75.08;99846.09;10427828;28;20528;-61
2024/01/19 00:13:49;;;;;;;28.40;22.17;;;;;;;1.34;75.12;99849.59;10434018;28;20149;-62
2024/01/19 00:18:51;;;;;;;29.30;21.92;;;;;;;1.33;75.40;99851.34;10419263;28;20593;-62
2024/01/19 00:23:52;;;;;;;26.15;20.63;;;;;;;1.38;75.15;99859.00;10419409;28;20044;-62
2024/01/19 00:28:55;;;;;;;28.27;22.50;;;;;;;1.46;75.55;99866.50;10426504;28;20052;-61
2024/01/19 00:33:56;;;;;;;27.35;22.02;;;;;;;1.31;74.92;99868.09;10430162;28;20143;-61
2024/01/19 00:38:58;;;;;;;28.92;22.58;;;;;;;1.08;75.50;99832.47;10404872;28;20049;-64
2024/01/19 00:43:59;;;;;;;25.85;21.48;;;;;;;1.23;75.72;99868.44;10430985;28;20213;-62
2024/01/19 00:49:01;;;;;;;29.70;22.45;;;;;;;1.14;74.63;99876.75;10411546;28;20048;-62
2024/01/19 00:54:03;;;;;;;29.15;22.98;;;;;;;1.02;75.85;99870.31;10440131;28;20056;-61
2024/01/19 00:59:05;;;;;;;26.58;21.13;;;;;;;0.96;75.90;99884.59;10440772;28;20048;-62
2024/01/19 01:04:06;;;;;;;28.45;21.42;;;;;;;0.98;75.77;99893.22;10442673;28;20059;-62
2024/01/19 01:09:11;;;;;;;32.10;23.23;;;;;;;0.91;76.76;99906.69;10442133;28;20098;-62
2024/01/19 01:14:14;;;;;;;30.02;22.70;;;;;;;0.80;75.76;99905.38;10444313;28;20063;-61
2024/01/19 01:19:17;;;;;;;26.65;21.80;;;;;;;0.89;76.71;99914.59;10407076;28;20052;-61
2024/01/19 01:24:20;;;;;;;25.67;21.42;;;;;;;1.02;76.72;99928.84;10437459;28;20060;-62
2024/01/19 01:29:22;;;;;;;27.88;21.15;;;;;;;0.93;76.59;99931.91;10439186;28;20052;-62
2024/01/19 01:34:24;;;;;;;24.75;21.35;;;;;;;1.06;76.40;99953.13;10441735;28;20057;-63
2024/01/19 01:39:27;;;;;;;30.27;21.55;;;;;;;0.98;75.99;99961.34;10443364;28;20663;-61
2024/01/19 01:44:29;;;;;;;30.15;22.00;;;;;;;0.99;75.50;99973.56;10440130;28;20167;-62
2024/01/19 01:49:33;;;;;;;27.55;20.98;;;;;;;0.95;75.67;99985.09;10433460;28;20155;-61
2024/01/19 01:54:35;;;;;;;26.83;21.23;;;;;;;0.83;75.84;99983.88;10441206;28;20057;-61
2024/01/19 01:59:37;;;;;;;28.25;21.73;;;;;;;0.75;76.18;99982.50;10405059;28;20112;-63
2024/01/19 02:04:39;;;;;;;25.33;20.98;;;;;;;0.81;75.58;100009.31;10449766;28;20052;-62
2024/01/19 02:09:42;;;;;;;24.73;19.85;;;;;;;0.85;75.89;100012.63;10440968;28;20767;-63
2024/01/19 02:14:46;;;;;;;26.95;21.73;;;;;;;0.87;75.54;100016.88;10406948;28;20618;-63
2024/01/19 02:19:48;;;;;;;26.13;20.48;;;;;;;0.82;74.79;100012.75;10427373;28;20135;-61
2024/01/19 02:24:50;;;;;;;26.50;19.67;;;;;;;0.78;75.29;100014.69;10438519;28;20057;-63
2024/01/19 02:29:51;;;;;;;25.35;19.17;;;;;;;0.73;75.77;100023.66;10408416;28;20478;-62
2024/01/19 02:34:53;;;;;;;23.98;18.67;;;;;;;0.83;75.98;100032.81;10413831;28;20060;-65
2024/01/19 02:39:54;;;;;;;24.50;18.10;;;;;;;0.74;75.34;100020.13;10402898;28;20096;-60
2024/01/19 02:45:01;;;;;;;23.50;18.13;;;;;;;0.88;74.67;100038.69;10434862;28;20059;-61
2024/01/19 02:50:03;;;;;;;25.23;19.05;;;;;;;0.77;74.71;100035.72;10432545;28;20213;-61
2024/01/19 02:55:06;;;;;;;22.75;17.85;;;;;;;0.84;75.14;100042.34;10426449;28;20748;-61
2024/01/19 03:00:08;;;;;;;24.58;18.92;;;;;;;0.68;74.52;100037.78;10430605;28;20052;-62
2024/01/19 03:05:10;;;;;;;26.52;18.35;;;;;;;0.61;74.05;100045.97;10436174;28;20055;-62
2024/01/19 03:10:11;;;;;;;21.77;18.67;;;;;;;0.51;74.32;100050.75;10425107;28;20041;-61
2024/01/19 03:15:13;;;;;;;23.60;17.98;;;;;;;0.38;75.10;100058.28;10411241;28;20044;-61
2024/01/19 03:20:14;;;;;;;25.30;18.25;;;;;;;0.34;75.28;100054.06;10425218;28;20056;-61
2024/01/19 03:25:16;;;;;;;20.30;15.65;;;;;;;0.31;75.19;100055.03;10449041;28;20059;-62
2024/01/19 03:30:17;;;;;;;22.27;17.05;;;;;;;0.36;76.06;100062.72;10432506;28;20047;-62
2024/01/19 03:35:20;;;;;;;21.70;16.73;;;;;;;0.35;75.48;100066.25;10448353;28;20064;-62
2024/01/19 03:40:21;;;;;;;23.48;16.42;;;;;;;0.15;74.52;100072.28;10427319;28;20186;-63
2024/01/19 03:45:23;;;;;;;20.85;16.52;;;;;;;0.14;75.44;100088.94;10426685;28;20060;-62
2024/01/19 03:50:24;;;;;;;19.92;15.73;;;;;;;0.14;75.69;100095.00;10388830;28;20067;-62
2024/01/19 03:55:27;;;;;;;19.42;16.38;;;;;;;0.26;75.16;100098.91;10440554;28;20141;-62
2024/01/19 04:00:29;;;;;;;22.42;16.30;;;;;;;0.16;75.25;100092.34;10419894;28;20068;-62
2024/01/19 04:05:32;;;;;;;20.52;17.23;;;;;;;0.06;74.59;100098.84;10418652;28;20621;-62
2024/01/19 04:10:34;;;;;;;20.45;16.33;;;;;;;0.10;75.27;100105.66;10438684;28;20177;-62
2024/01/19 04:15:35;;;;;;;20.20;15.02;;;;;;;-0.01;74.67;100109.56;10419040;28;20153;-62
2024/01/19 04:20:37;;;;;;;16.15;14.15;;;;;;;-0.06;74.81;100119.38;10442909;28;20710;-63
2024/01/19 04:25:38;;;;;;;19.80;16.08;;;;;;;-0.30;75.09;100109.81;10443093;28;20084;-63
2024/01/19 04:30:40;;;;;;;18.25;13.90;;;;;;;-0.19;75.12;100136.44;10432043;28;20064;-64
2024/01/19 04:35:41;;;;;;;19.95;14.77;;;;;;;-0.21;75.51;100130.38;10414500;28;20048;-61
2024/01/19 04:40:42;;;;;;;19.67;14.18;;;;;;;-0.17;74.91;100121.53;10445450;28;20064;-64
2024/01/19 04:45:45;;;;;;;17.27;14.15;;;;;;;0.07;75.08;100137.19;10441869;28;20080;-62
2024/01/19 04:50:47;;;;;;;19.48;14.82;;;;;;;0.05;74.81;100150.34;10442072;28;20129;-62
2024/01/19 04:55:49;;;;;;;16.75;14.32;;;;;;;0.15;75.55;100158.69;10431514;28;20715;-63
2024/01/19 05:00:50;;;;;;;16.77;13.55;;;;;;;0.19;74.73;100164.66;10438906;28;20059;-62
2024/01/19 05:05:52;;;;;;;17.23;13.95;;;;;;;0.14;74.69;100164.84;10441760;28;20037;-63
2024/01/19 05:10:54;;;;;;;19.63;15.73;;;;;;;0.20;74.76;100175.06;10442839;28;20134;-62
2024/01/19 05:15:55;;;;;;;18.98;16.45;;;;;;;0.26;74.70;100177.44;10421047;28;20329;-62
2024/01/19 05:20:57;;;;;;;19.40;15.25;;;;;;;0.06;73.80;100173.00;10401601;28;20056;-64
2024/01/19 05:26:02;;;;;;;18.80;15.05;;;;;;;0.14;73.79;100191.03;10438076;28;20124;-62
2024/01/19 05:31:04;;;;;;;;;;;;;;;0.15;73.87;100200.56;10401899;28;20053;-61
2024/01/19 05:36:08;;;;;;;20.10;15.77;;;;;;;-0.02;72.91;100199.44;10431635;28;19928;-64
2024/01/19 05:41:10;;;;;;;20.33;16.10;;;;;;;0.02;72.71;100212.44;10435796;28;20653;-62
2024/01/19 05:46:13;;;;;;;19.08;15.48;;;;;;;0.02;73.01;100218.50;10418941;28;20048;-65
2024/01/19 05:51:15;;;;;;;22.50;16.15;;;;;;;-0.06;72.64;100223.16;10435092;28;20820;-62
2024/01/19 05:56:17;;;;;;;22.63;16.50;;;;;;;-0.38;72.94;100186.81;10422387;28;20071;-63
2024/01/19 06:01:19;;;;;;;20.10;16.25;;;;;;;-0.19;72.46;100230.63;10419313;28;20194;-63
2024/01/19 06:06:22;;;;;;;19.98;15.55;;;;;;;-0.45;73.46;100237.66;10435296;28;20775;-62
2024/01/19 06:11:23;;;;;;;20.52;16.40;;;;;;;-0.69;74.45;100236.75;10434715;28;20770;-62
2024/01/19 06:16:25;;;;;;;20.38;15.90;;;;;;;-0.59;74.84;100239.88;10437481;28;20049;-62
2024/01/19 06:21:27;;;;;;;20.85;15.45;;;;;;;-0.45;74.36;100263.81;10410170;28;20104;-62
2024/01/19 06:26:32;;;;;;;23.38;17.55;;;;;;;-0.50;73.00;100277.94;10421220;28;20604;-63
2024/01/19 06:31:33;;;;;;;18.80;15.48;;;;;;;-0.39;73.27;100294.97;10420788;28;20053;-63
2024/01/19 06:36:35;;;;;;;20.30;15.75;;;;;;;-0.37;73.72;100308.84;10423073;28;20052;-62
2024/01/19 06:41:44;;;;;;;20.52;16.58;;;;;;;-0.45;74.06;100305.66;10391270;28;20111;-63
2024/01/19 06:46:46;;;;;;;19.42;15.20;;;;;;;-0.54;75.16;100304.19;10435871;28;20056;-62
2024/01/19 06:51:47;;;;;;;18.67;14.65;;;;;;;-0.53;73.35;100328.56;10425581;28;20595;-62
2024/01/19 06:56:49;;;;;;;20.20;15.25;;;;;;;-0.53;74.52;100328.56;10411788;28;20435;-63
2024/01/19 07:01:51;;;;;;;19.33;15.52;;;;;;;-0.72;74.39;100331.81;10413681;28;20421;-62
2024/01/19 07:06:52;;;;;;;19.73;14.90;;;;;;;-0.61;74.16;100343.69;10429642;28;20048;-63
2024/01/19 07:11:55;;;;;;;23.23;15.95;;;;;;;-0.77;74.00;100359.00;10421505;28;20667;-63
2024/01/19 07:16:57;;;;;;;22.08;16.52;;;;;;;-0.90;74.39;100355.94;10437020;28;20131;-62
2024/01/19 07:21:58;;;;;;;18.50;15.18;;;;;;;-0.83;74.69;100378.34;10407350;28;20107;-62
2024/01/19 07:27:00;;;;;;;19.92;16.40;;;;;;;-0.95;74.56;100373.50;10427335;28;20048;-62
2024/01/19 07:32:02;;;;;;;21.17;15.25;;;;;;;-0.94;74.39;100380.44;10432840;28;20068;-62
2024/01/19 07:37:05;;;;;;;22.63;15.80;;;;;;;-0.79;75.43;100385.19;10418340;28;20044;-63
2024/01/19 07:42:06;;;;;;;25.25;16.35;;;;;;;-0.58;76.04;100394.09;10405232;28;20064;-66
2024/01/19 07:47:08;;;;;;;20.75;16.35;;;;;;;-0.52;75.29;100392.22;10403552;28;20453;-62
2024/01/19 07:52:09;;;;;;;20.63;16.13;;;;;;;-0.69;74.62;100369.19;10433327;28;20061;-63
2024/01/19 07:57:11;;;;;;;20.15;15.63;;;;;;;-0.65;75.12;100402.19;10432955;28;20049;-63
2024/01/19 08:02:13;;;;;;;19.38;15.43;;;;;;;-0.48;74.95;100401.63;10433655;28;20594;-61
2024/01/19 08:07:14;;;;;;;20.30;14.88;;;;;;;-0.39;75.59;100412.69;10418372;28;20049;-62
2024/01/19 08:12:16;;;;;;;19.27;14.93;;;;;;;-0.20;74.88;100427.75;10423964;28;20385;-62
2024/01/19 08:17:20;;;;;;;17.63;14.52;;;;;;;-0.21;74.69;100436.50;10406924;28;20643;-62
2024/01/19 08:22:22;;;;;;;22.42;15.20;;;;;;;-0.12;74.35;100433.59;10438879;28;20052;-63
2024/01/19 08:27:24;;;;;;;21.85;15.30;;;;;;;-0.16;74.44;100445.06;10439514;28;20139;-64
2024/01/19 08:32:26;;;;;;;17.90;14.20;;;;;;;-0.07;75.03;100468.31;10404016;28;22444;-64
2024/01/19 08:37:28;;;;;;;21.45;16.30;;;;;;;0.04;75.20;100477.59;10411052;28;20045;-61
2024/01/19 08:42:30;;;;;;;20.42;15.32;;;;;;;0.25;75.63;100494.31;10434524;28;20049;-61
2024/01/19 08:47:31;;;;;;;22.48;17.38;;;;;;;0.47;75.32;100494.47;10438274;28;20135;-62
2024/01/19 08:52:33;;;;;;;22.70;18.25;;;;;;;0.65;74.47;100504.28;10387947;28;20040;-64
2024/01/19 08:57:35;;;;;;;25.40;20.30;;;;;;;0.75;73.15;100509.19;10437270;28;20060;-63
2024/01/19 09:02:37;;;;;;;20.23;18.13;;;;;;;0.77;73.72;100533.59;10434496;28;20549;-64
2024/01/19 09:07:50;;;;;;;24.77;18.77;;;;;;;0.78;72.18;100524.81;10441876;28;21246;-62
2024/01/19 09:12:52;;;;;;;18.55;16.00;;;;;;;0.86;72.93;100533.25;10442265;28;20146;-63
2024/01/19 09:17:55;;;;;;;21.75;18.42;;;;;;;0.88;72.12;100526.19;10406496;28;20367;-63
2024/01/19 09:22:58;;;;;;;24.13;19.00;;;;;;;0.86;72.56;100549.00;10420101;28;20090;-63
2024/01/19 09:28:01;;;;;;;24.13;19.92;;;;;;;0.70;71.31;100554.75;10415879;28;20118;-63
2024/01/19 09:33:05;;;;;;;26.00;20.63;;;;;;;0.63;72.31;100558.50;10440893;28;20839;-61
2024/01/19 09:38:06;;;;;;;29.50;22.65;;;;;;;0.79;72.61;100573.69;10439822;28;20083;-62
2024/01/19 09:43:08;;;;;;;26.58;21.33;;;;;;;0.82;72.59;100591.94;10408459;28;20140;-64
2024/01/19 09:48:20;;;;;;;30.45;20.65;;;;;;;0.85;72.83;100600.53;10414985;28;20040;-63
2024/01/19 09:53:32;;;;;;;20.23;16.50;;;;;;;0.91;72.04;100609.97;10434336;28;20055;-63
2024/01/19 09:58:34;;;;;;;22.85;16.50;;;;;;;1.12;73.31;100618.00;10427536;28;20047;-61
2024/01/19 10:03:36;;;;;;;19.85;17.30;;;;;;;1.09;72.09;100623.34;10437214;28;21801;-61
2024/01/19 10:08:38;;;;;;;25.65;20.50;;;;;;;1.06;71.24;100634.78;10381195;28;20044;-63
2024/01/19 10:13:39;;;;;;;41.70;32.47;;;;;;;1.12;72.25;100642.44;10435484;28;20113;-63
2024/01/19 10:18:42;;;;;;;24.67;22.05;;;;;;;1.21;72.22;100644.72;10421579;28;20083;-63
2024/01/19 10:23:44;;;;;;;24.42;20.33;;;;;;;1.09;72.01;100644.31;10435682;28;20183;-62
2024/01/19 10:28:46;;;;;;;31.20;28.02;;;;;;;1.14;72.84;100653.75;10436003;28;20143;-62
2024/01/19 10:33:49;;;;;;;25.33;20.73;;;;;;;1.21;72.38;100668.31;10438008;28;20057;-62
2024/01/19 10:38:51;;;;;;;22.27;17.45;;;;;;;1.12;71.95;100691.41;10437162;28;20048;-63
2024/01/19 10:43:52;;;;;;;21.40;15.38;;;;;;;0.97;72.79;100683.13;10419477;28;20048;-62
2024/01/19 10:49:03;;;;;;;17.48;14.73;;;;;;;0.96;73.58;100686.69;10390687;28;20056;-62
2024/01/19 10:54:06;;;;;;;18.65;15.00;;;;;;;1.10;74.62;100688.00;10399257;28;20158;-63
2024/01/19 10:59:14;;;;;;;23.45;20.98;;;;;;;1.08;73.94;100701.13;10411903;28;20049;-63
2024/01/19 11:04:15;;;;;;;17.83;14.40;;;;;;;1.01;73.89;100690.00;10438027;28;20226;-62
2024/01/19 11:09:17;;;;;;;19.70;15.85;;;;;;;0.97;74.55;100683.13;10433773;28;20041;-64
2024/01/19 11:14:22;;;;;;;17.10;14.43;;;;;;;1.03;74.54;100688.19;10430587;28;20128;-61
2024/01/19 11:19:24;;;;;;;20.63;15.73;;;;;;;1.36;72.86;100690.53;10426947;28;20047;-64
2024/01/19 11:24:32;;;;;;;32.42;26.65;;;;;;;1.63;71.14;100687.84;10412564;28;20726;-62
2024/01/19 11:29:41;;;;;;;18.65;15.80;;;;;;;1.74;70.97;100693.56;10434469;28;20123;-62
2024/01/19 11:34:49;;;;;;;16.75;13.52;;;;;;;1.56;70.99;100670.59;10394398;28;20064;-63
2024/01/19 11:39:51;;;;;;;16.88;13.60;;;;;;;1.91;70.81;100682.44;10436618;28;20052;-62
2024/01/19 11:44:53;;;;;;;17.65;12.73;;;;;;;3.11;65.27;100645.22;10404205;28;20158;-64
2024/01/19 11:49:55;;;;;;;15.98;12.23;;;;;;;4.46;62.04;100684.75;10433506;28;20056;-64
2024/01/19 11:54:56;;;;;;;13.25;11.35;;;;;;;5.41;59.33;100692.31;10438009;28;20052;-64
2024/01/19 11:59:58;;;;;;;17.67;12.27;;;;;;;6.19;57.32;100697.03;10423188;28;20063;-63
2024/01/19 12:05:07;;;;;;;13.85;11.82;;;;;;;7.00;54.41;100702.16;10416682;28;20128;-63
2024/01/19 12:10:15;;;;;;;14.23;11.60;;;;;;;6.26;55.62;100703.69;10435444;28;20052;-65
2024/01/19 12:15:17;;;;;;;13.18;11.55;;;;;;;5.30;58.78;100710.53;10401238;28;20523;-64
2024/01/19 12:20:19;;;;;;;14.63;11.60;;;;;;;4.86;59.47;100711.78;10411926;28;20068;-66
2024/01/19 12:25:24;;;;;;;17.42;12.85;;;;;;;5.08;60.65;100708.09;10427813;28;20164;-65
2024/01/19 12:30:32;;;;;;;17.05;12.23;;;;;;;7.09;53.73;100708.72;10440474;28;22131;-65
2024/01/19 12:35:33;;;;;;;15.07;12.00;;;;;;;7.08;54.50;100710.47;10423617;28;20290;-64
2024/01/19 12:40:38;;;;;;;13.82;11.98;;;;;;;6.04;57.01;100698.72;10390411;28;20059;-63
2024/01/19 12:45:40;;;;;;;14.60;12.43;;;;;;;7.91;53.67;100698.47;10435894;28;20186;-65
2024/01/19 12:50:41;;;;;;;14.68;12.40;;;;;;;9.13;49.48;100674.75;10436586;28;20044;-63
2024/01/19 12:55:44;;;;;;;15.95;12.38;;;;;;;9.70;47.33;100694.75;10438192;28;20561;-62
2024/01/19 13:00:46;;;;;;;17.27;12.00;;;;;;;9.00;49.95;100690.63;10402785;28;21106;-61
2024/01/19 13:05:48;;;;;;;13.55;11.75;;;;;;;10.10;46.36;100675.97;10434239;28;20151;-60
2024/01/19 13:10:49;;;;;;;14.68;12.25;;;;;;;10.63;44.31;100688.16;10411219;28;20068;-61
2024/01/19 13:15:52;;;;;;;12.50;11.20;;;;;;;11.03;44.54;100702.00;10416189;28;20709;-60
2024/01/19 13:20:54;;;;;;;13.02;11.38;;;;;;;8.61;48.34;100697.63;10434480;28;20056;-61
2024/01/19 13:25:56;;;;;;;16.23;13.07;;;;;;;6.72;52.81;100697.59;10408331;28;20890;-61
2024/01/19 13:30:58;;;;;;;15.43;12.43;;;;;;;5.69;56.64;100660.97;10433159;28;20064;-61
2024/01/19 13:35:59;;;;;;;15.45;13.27;;;;;;;8.34;51.24;100709.03;10442941;28;20045;-61
2024/01/19 13:41:03;;;;;;;16.83;12.73;;;;;;;7.05;51.61;100681.53;10441265;28;20044;-62
2024/01/19 13:46:05;;;;;;;16.05;12.55;;;;;;;6.67;53.29;100726.97;10437665;28;20049;-63
2024/01/19 13:51:07;;;;;;;13.65;11.38;;;;;;;7.96;51.87;100736.19;10436444;28;20048;-62
2024/01/19 13:56:09;;;;;;;12.32;11.02;;;;;;;7.30;52.83;100741.00;10395525;28;20069;-61
2024/01/19 14:01:11;;;;;;;15.88;11.82;;;;;;;6.06;55.58;100740.94;10385012;28;20041;-62
2024/01/19 14:06:13;;;;;;;15.93;13.18;;;;;;;5.25;58.44;100744.19;10386304;28;20056;-63
2024/01/19 14:11:15;;;;;;;16.95;13.80;;;;;;;4.89;60.22;100734.53;10426661;28;20063;-62
2024/01/19 14:16:17;;;;;;;14.32;12.57;;;;;;;4.59;60.84;100733.34;10435026;28;20059;-63
2024/01/19 14:21:18;;;;;;;16.98;12.95;;;;;;;4.66;62.22;100749.69;10426554;28;20055;-60
2024/01/19 14:26:20;;;;;;;19.48;13.73;;;;;;;4.72;61.11;100748.56;10429002;28;20138;-62
2024/01/19 14:31:23;;;;;;;17.55;13.88;;;;;;;4.68;61.16;100749.63;10417222;28;20689;-61
2024/01/19 14:36:24;;;;;;;16.65;13.45;;;;;;;4.32;61.87;100750.44;10432244;28;20575;-63
2024/01/19 14:41:26;;;;;;;15.18;12.80;;;;;;;4.15;63.08;100762.59;10433043;28;20134;-61
2024/01/19 14:46:28;;;;;;;16.27;13.52;;;;;;;4.12;63.33;100769.81;10430515;28;20141;-62
2024/01/19 14:51:30;;;;;;;18.15;13.75;;;;;;;3.77;64.06;100775.72;10432231;28;20067;-63
2024/01/19 14:56:35;;;;;;;16.23;13.75;;;;;;;3.72;65.29;100793.47;10418817;28;20818;-61
2024/01/19 15:01:37;;;;;;;16.55;13.80;;;;;;;3.53;66.50;100794.28;10409348;28;20125;-63
2024/01/19 15:06:39;;;;;;;19.00;15.30;;;;;;;3.36;66.87;100802.03;10430065;28;20053;-61
2024/01/19 15:11:41;;;;;;;17.02;14.40;;;;;;;3.27;67.54;100819.06;10408139;28;20049;-61
2024/01/19 15:16:42;;;;;;;18.00;14.23;;;;;;;3.18;67.71;100830.81;10436865;28;20187;-61
2024/01/19 15:21:44;;;;;;;18.15;14.90;;;;;;;2.96;67.91;100827.34;10437343;28;20715;-62
2024/01/19 15:26:46;;;;;;;16.92;14.60;;;;;;;2.69;68.71;100827.50;10413770;28;20068;-63
2024/01/19 15:31:48;;;;;;;21.60;15.65;;;;;;;2.35;69.68;100833.16;10407037;28;20501;-61
2024/01/19 15:36:51;;;;;;;18.95;15.40;;;;;;;2.37;70.92;100863.75;10436484;28;20052;-59
2024/01/19 15:41:53;;;;;;;17.35;14.15;;;;;;;2.20;70.99;100834.59;10436929;28;20052;-60
2024/01/19 15:46:56;;;;;;;36.63;31.70;;;;;;;2.25;71.32;100880.81;10432855;28;20056;-63
2024/01/19 15:51:58;;;;;;;35.97;29.17;;;;;;;2.21;71.70;100891.47;10433894;28;20056;-62
2024/01/19 15:57:00;;;;;;;17.65;14.75;;;;;;;2.10;71.37;100869.06;10417771;28;20045;-62
2024/01/19 16:02:02;;;;;;;16.75;13.88;;;;;;;2.21;71.36;100909.88;10424532;28;20074;-63
2024/01/19 16:07:04;;;;;;;18.92;14.82;;;;;;;2.13;72.26;100918.00;10424699;28;20203;-61
2024/01/19 16:12:06;;;;;;;22.83;17.42;;;;;;;2.20;72.49;100913.41;10434838;28;20411;-63
2024/01/19 16:17:07;;;;;;;17.95;14.10;;;;;;;2.11;71.41;100936.44;10416620;28;20505;-61
2024/01/19 16:22:09;;;;;;;19.02;14.15;;;;;;;2.11;71.96;100940.84;10434850;28;20100;-64
2024/01/19 16:27:10;;;;;;;18.48;13.13;;;;;;;1.99;72.58;100950.00;10439182;28;20068;-62
2024/01/19 16:32:12;;;;;;;18.63;14.65;;;;;;;2.07;71.78;100953.22;10424870;28;20108;-62
2024/01/19 16:37:16;;;;;;;17.20;13.63;;;;;;;2.11;72.57;100957.44;10419918;28;20340;-61
2024/01/19 16:42:19;;;;;;;20.20;15.77;;;;;;;1.96;72.31;100968.47;10439032;28;20044;-62
2024/01/19 16:47:20;;;;;;;19.60;14.23;;;;;;;1.88;72.79;100967.88;10428296;28;21380;-63
2024/01/19 16:52:22;;;;;;;19.23;14.70;;;;;;;1.88;73.33;100970.50;10443148;28;20657;-62
2024/01/19 16:57:24;;;;;;;19.00;15.65;;;;;;;1.87;73.65;100974.88;10424110;28;20052;-62
2024/01/19 17:02:25;;;;;;;18.83;14.00;;;;;;;1.79;73.45;100950.66;10439192;28;20065;-61
2024/01/19 17:07:27;;;;;;;21.23;14.82;;;;;;;1.81;74.05;100969.84;10442587;28;20056;-60
2024/01/19 17:12:31;;;;;;;19.13;15.55;;;;;;;1.75;74.90;100976.13;10395861;28;20053;-62
2024/01/19 17:17:36;;;;;;;21.33;17.40;;;;;;;1.74;75.12;100979.69;10436111;28;20652;-64
2024/01/19 17:22:38;;;;;;;21.40;16.88;;;;;;;1.70;75.42;100983.31;10443778;28;20060;-62
2024/01/19 17:27:39;;;;;;;20.30;17.35;;;;;;;1.40;75.72;100951.03;10389204;28;20104;-62
2024/01/19 17:32:42;;;;;;;20.80;18.13;;;;;;;1.56;76.93;101006.50;10424021;28;20094;-65
2024/01/19 17:37:44;;;;;;;22.52;17.65;;;;;;;1.54;76.80;101005.69;10431875;28;20060;-63
2024/01/19 17:42:45;;;;;;;22.20;17.33;;;;;;;1.58;77.25;101016.03;10435810;28;20143;-62
2024/01/19 17:47:48;;;;;;;20.60;15.55;;;;;;;1.53;76.86;101012.72;10429954;28;20232;-62
2024/01/19 17:52:54;;;;;;;21.98;17.30;;;;;;;1.51;77.34;101021.53;10423653;28;20135;-61
2024/01/19 17:57:57;;;;;;;20.10;17.25;;;;;;;1.57;77.28;101034.47;10422051;28;20121;-63
2024/01/19 18:03:00;;;;;;;21.08;17.35;;;;;;;1.59;76.79;101037.88;10420934;28;20069;-62
2024/01/19 18:08:02;;;;;;;20.85;16.40;;;;;;;1.54;77.14;101047.69;10439290;28;20060;-62
2024/01/19 18:13:03;;;;;;;22.50;16.83;;;;;;;1.53;76.85;101052.09;10439785;28;20102;-63
2024/01/19 18:18:05;;;;;;;18.58;16.55;;;;;;;1.42;76.93;101052.38;10410970;28;20517;-60
2024/01/19 18:23:17;;;;;;;25.02;17.85;;;;;;;1.27;77.24;101044.97;10433041;28;20057;-62
2024/01/19 18:28:20;;;;;;;19.25;16.42;;;;;;;1.40;77.80;101063.84;10435305;28;20150;-60
2024/01/19 18:33:24;;;;;;;23.75;16.25;;;;;;;1.46;77.15;101081.19;10436492;28;20106;-60
2024/01/19 18:38:26;;;;;;;20.15;17.55;;;;;;;1.51;77.34;101087.13;10412175;28;20052;-61
2024/01/19 18:43:28;;;;;;;21.40;17.30;;;;;;;1.44;77.33;101090.84;10419577;28;20049;-64
2024/01/19 18:48:29;;;;;;;21.20;16.63;;;;;;;1.21;77.42;101080.09;10419777;28;20206;-61
2024/01/19 18:53:32;;;;;;;17.25;14.82;;;;;;;1.27;77.32;101100.06;10421480;28;20437;-60
2024/01/19 18:58:37;;;;;;;19.80;16.50;;;;;;;1.17;77.63;101109.06;10397584;28;20053;-62
2024/01/19 19:03:39;;;;;;;25.75;16.05;;;;;;;1.23;77.73;101127.25;10437975;28;20083;-61
2024/01/19 19:08:41;;;;;;;20.45;15.50;;;;;;;1.15;78.02;101124.00;10430720;28;20045;-61
2024/01/19 19:13:42;;;;;;;21.92;16.20;;;;;;;1.22;77.98;101125.56;10411544;28;20154;-64
2024/01/19 19:18:44;;;;;;;21.50;16.15;;;;;;;1.23;77.88;101135.13;10392006;28;20041;-61
2024/01/19 19:23:46;;;;;;;21.25;17.08;;;;;;;1.21;77.88;101135.19;10434811;28;20347;-63
2024/01/19 19:28:54;;;;;;;22.05;16.83;;;;;;;1.33;77.94;101151.50;10416111;28;20518;-61
2024/01/19 19:33:56;;;;;;;24.05;17.80;;;;;;;1.36;77.74;101157.50;10394152;28;20071;-62
2024/01/19 19:38:58;;;;;;;22.42;16.58;;;;;;;1.39;77.63;101162.66;10399969;28;20056;-62
2024/01/19 19:44:08;;;;;;;21.30;17.05;;;;;;;1.35;77.56;101166.28;10433889;28;20195;-62
2024/01/19 19:49:10;;;;;;;24.35;18.25;;;;;;;1.37;77.82;101182.00;10432338;28;20167;-60
2024/01/19 19:54:12;;;;;;;19.80;16.40;;;;;;;1.45;77.71;101181.78;10432069;28;20068;-61
2024/01/19 19:59:13;;;;;;;19.40;16.08;;;;;;;1.33;77.46;101194.31;10424805;28;20053;-61
2024/01/19 20:04:15;;;;;;;20.98;16.90;;;;;;;1.42;77.21;101203.72;10416765;28;20155;-63
2024/01/19 20:09:17;;;;;;;20.35;15.77;;;;;;;1.40;77.49;101208.16;10415959;28;21345;-62
2024/01/19 20:14:18;;;;;;;22.70;17.17;;;;;;;1.38;77.25;101202.06;10434838;28;20062;-62
2024/01/19 20:19:25;;;;;;;20.77;15.23;;;;;;;1.22;77.73;101199.00;10409439;28;20061;-62
2024/01/19 20:24:26;;;;;;;19.83;15.70;;;;;;;1.07;77.98;101179.28;10427380;28;20053;-62
2024/01/19 20:29:28;;;;;;;23.08;16.65;;;;;;;1.00;78.02;101191.69;10410929;28;20057;-61
2024/01/19 20:34:29;;;;;;;20.50;15.73;;;;;;;1.07;78.45;101200.28;10413132;28;20147;-60
2024/01/19 20:39:31;;;;;;;24.38;17.25;;;;;;;1.01;77.90;101198.66;10436167;28;20502;-61
2024/01/19 20:44:33;;;;;;;19.65;16.60;;;;;;;1.06;78.25;101202.00;10434874;28;20490;-64
2024/01/19 20:49:39;;;;;;;21.38;16.95;;;;;;;1.17;77.97;101198.25;10433960;28;20107;-62
2024/01/19 20:54:41;;;;;;;23.15;18.50;;;;;;;1.15;78.03;101211.41;10435767;28;20055;-63
2024/01/19 20:59:42;;;;;;;21.58;17.70;;;;;;;1.18;77.57;101213.94;10441350;28;20056;-61
2024/01/19 21:04:44;;;;;;;21.52;16.52;;;;;;;1.05;77.46;101195.06;10416735;28;20056;-61
2024/01/19 21:09:47;;;;;;;20.77;16.02;;;;;;;1.02;77.52;101210.88;10415915;28;20512;-62
2024/01/19 21:14:50;;;;;;;21.80;16.60;;;;;;;0.84;77.48;101196.47;10432659;28;20056;-61
2024/01/19 21:19:51;;;;;;;23.60;17.15;;;;;;;0.80;77.58;101205.31;10412574;28;20048;-62
2024/01/19 21:24:54;;;;;;;21.83;15.73;;;;;;;0.86;78.12;101220.03;10432708;28;20726;-63
2024/01/19 21:29:58;;;;;;;24.17;17.63;;;;;;;0.77;77.90;101213.25;10435996;28;20059;-61
2024/01/19 21:35:00;;;;;;;26.73;18.27;;;;;;;0.76;77.61;101208.88;10436936;28;20048;-61
2024/01/19 21:40:04;;;;;;;21.73;16.52;;;;;;;0.76;78.29;101218.53;10416890;28;20056;-61
2024/01/19 21:45:06;;;;;;;22.20;16.90;;;;;;;0.66;78.00;101218.75;10436915;28;20411;-60
2024/01/19 21:50:11;;;;;;;20.83;15.88;;;;;;;0.57;77.80;101223.34;10434334;28;20137;-62
2024/01/19 21:55:13;;;;;;;23.80;17.17;;;;;;;0.57;77.67;101234.69;10435776;28;20686;-61
2024/01/19 22:00:15;;;;;;;21.77;15.18;;;;;;;0.43;77.17;101255.94;10426865;28;20525;-61
2024/01/19 22:05:17;;;;;;;20.40;16.17;;;;;;;0.43;77.37;101244.63;10412866;28;20103;-60
2024/01/19 22:10:19;;;;;;;23.42;15.93;;;;;;;0.37;77.30;101240.38;10433748;28;22499;-61
2024/01/19 22:15:21;;;;;;;23.95;16.58;;;;;;;0.30;77.29;101241.41;10423599;28;20504;-63
2024/01/19 22:20:22;;;;;;;21.70;17.45;;;;;;;0.29;76.67;101245.78;10413714;28;20076;-61
2024/01/19 22:25:25;;;;;;;19.85;15.50;;;;;;;0.08;77.19;101252.34;10423130;28;20137;-61
2024/01/19 22:30:27;;;;;;;20.48;15.82;;;;;;;-0.04;76.99;101250.84;10417160;28;20580;-62
2024/01/19 22:35:30;;;;;;;19.58;15.00;;;;;;;-0.06;76.90;101276.19;10435777;28;20048;-61
2024/01/19 22:40:32;;;;;;;22.45;16.83;;;;;;;-0.01;76.23;101274.34;10435593;28;21207;-60
2024/01/19 22:45:34;;;;;;;20.83;14.73;;;;;;;-0.16;75.88;101277.25;10408958;28;20064;-60
2024/01/19 22:50:36;;;;;;;21.95;16.13;;;;;;;-0.21;76.01;101293.06;10417486;28;20462;-62
2024/01/19 22:55:38;;;;;;;18.92;15.45;;;;;;;-0.43;76.25;101250.72;10437359;28;20068;-60